Terminal Aerodrome Forecast
Issued by NWS Bismarck, ND

Home | Current Version | Previous Version | Graphics & Text | Print | Product List | Glossary On
Versions: 1 2 3 4 5 6 7 8 9 10 11 12 13 14 15 16 17 18 19 20 21 22 23
541
FTUS43 KBIS 281657 AAD
TAFISN
TAF AMD
KISN 281657Z 2817/2912 05005KT P6SM BKN009
      TEMPO 2817/2819 SCT010 SCT110
     FM281900 VRB04KT P6SM BKN110
     FM282100 VRB04KT P6SM VCSH SCT070 BKN090
     FM290100 VRB05KT P6SM SCT100=

USA.gov is the U.S. government's official web portal to all federal, state and local government web resources and services.